createdAt,value
2023-04-20T00:00:52.879Z,0.00
2023-04-20T00:01:52.897Z,0.00
2023-04-20T00:02:53.046Z,0.00
2023-04-20T00:03:53.026Z,0.00
2023-04-20T00:04:52.968Z,0.00
2023-04-20T00:05:52.833Z,0.00
2023-04-20T00:06:52.801Z,0.00
2023-04-20T00:07:52.759Z,0.00
2023-04-20T00:08:52.878Z,0.00
2023-04-20T00:09:52.792Z,0.00
2023-04-20T00:10:52.783Z,0.00
2023-04-20T00:11:52.732Z,0.00
2023-04-20T00:12:52.731Z,0.00
2023-04-20T00:13:52.720Z,0.00
2023-04-20T00:14:52.817Z,0.00
2023-04-20T00:15:52.652Z,0.00
2023-04-20T00:16:52.749Z,0.00
2023-04-20T00:17:52.732Z,0.00
2023-04-20T00:18:52.737Z,0.00
2023-04-20T00:19:52.658Z,0.00
2023-04-20T00:20:52.678Z,0.00
2023-04-20T00:21:52.585Z,0.00
2023-04-20T00:22:52.605Z,0.00
2023-04-20T00:23:52.583Z,0.00
2023-04-20T00:24:52.566Z,0.00
2023-04-20T00:25:52.547Z,0.00
2023-04-20T00:26:52.592Z,0.00
2023-04-20T00:27:52.506Z,0.00
2023-04-20T00:28:52.537Z,0.00
2023-04-20T00:29:52.476Z,0.00
2023-04-20T00:30:52.552Z,0.00
2023-04-20T00:31:52.475Z,0.00
2023-04-20T00:32:52.530Z,0.00
2023-04-20T00:33:52.447Z,0.00
2023-04-20T00:34:52.460Z,0.00
2023-04-20T00:35:52.379Z,0.00
2023-04-20T00:36:52.423Z,0.00
2023-04-20T00:37:52.415Z,0.00
2023-04-20T00:38:52.507Z,0.00
2023-04-20T00:39:52.388Z,0.00
2023-04-20T00:40:52.348Z,0.00
2023-04-20T00:41:52.361Z,0.00
2023-04-20T00:42:52.291Z,0.00
2023-04-20T00:43:52.361Z,0.00
2023-04-20T00:44:52.322Z,0.00
2023-04-20T00:45:52.347Z,0.00
2023-04-20T00:46:52.292Z,0.00
2023-04-20T00:47:52.309Z,0.00
2023-04-20T00:48:52.221Z,0.00
2023-04-20T00:49:52.253Z,0.00
2023-04-20T00:50:52.319Z,0.00
2023-04-20T00:51:52.201Z,0.00
2023-04-20T00:52:52.195Z,0.00
2023-04-20T00:53:52.215Z,0.00
2023-04-20T00:54:52.136Z,0.00
2023-04-20T00:55:52.164Z,0.00
2023-04-20T00:56:52.206Z,0.00
2023-04-20T00:57:52.128Z,0.00
2023-04-20T00:58:52.111Z,0.00
2023-04-20T00:59:52.149Z,0.00
2023-04-20T01:00:52.065Z,0.00
2023-04-20T01:01:52.182Z,0.00
2023-04-20T01:02:52.230Z,0.00
2023-04-20T01:03:52.167Z,0.00
2023-04-20T01:04:52.047Z,0.00
2023-04-20T01:05:52.048Z,0.00
2023-04-20T01:06:52.007Z,0.00
2023-04-20T01:07:52.019Z,0.00
2023-04-20T01:08:52.100Z,0.00
2023-04-20T01:09:51.968Z,0.00
2023-04-20T01:10:51.959Z,0.00
2023-04-20T01:11:52.054Z,0.00
2023-04-20T01:12:51.904Z,0.00
2023-04-20T01:13:51.934Z,0.00
2023-04-20T01:14:52.005Z,0.00
2023-04-20T01:15:51.935Z,0.00
2023-04-20T01:16:51.867Z,0.00
2023-04-20T01:17:51.929Z,0.00
2023-04-20T01:18:51.844Z,0.00
2023-04-20T01:19:51.860Z,0.00
2023-04-20T01:20:51.821Z,0.00
2023-04-20T01:21:51.854Z,0.00
2023-04-20T01:22:51.762Z,0.00
2023-04-20T01:23:51.786Z,0.00
2023-04-20T01:24:51.793Z,0.00
2023-04-20T01:25:51.776Z,0.00
2023-04-20T01:26:51.755Z,0.00
2023-04-20T01:27:51.753Z,0.00
2023-04-20T01:28:51.707Z,0.00
2023-04-20T01:29:51.702Z,0.00
2023-04-20T01:30:51.712Z,0.00
2023-04-20T01:31:51.839Z,0.00
2023-04-20T01:32:51.719Z,0.00
2023-04-20T01:33:51.666Z,0.00
2023-04-20T01:34:51.604Z,0.00
2023-04-20T01:35:51.621Z,0.00
2023-04-20T01:36:51.619Z,0.00
2023-04-20T01:37:51.609Z,0.00
2023-04-20T01:38:51.621Z,0.00
2023-04-20T01:39:51.673Z,0.00
2023-04-20T01:40:51.526Z,0.00
2023-04-20T01:41:51.594Z,0.00
2023-04-20T01:42:51.504Z,0.00
2023-04-20T01:43:51.510Z,0.00
2023-04-20T01:44:51.620Z,0.00
2023-04-20T01:45:51.485Z,0.00
2023-04-20T01:46:51.496Z,0.00
2023-04-20T01:47:51.533Z,0.00
2023-04-20T01:48:51.423Z,0.00
2023-04-20T01:49:51.461Z,0.00
2023-04-20T01:50:51.515Z,0.00
2023-04-20T01:51:51.411Z,0.00
2023-04-20T01:52:51.410Z,0.00
2023-04-20T01:53:51.382Z,0.00
2023-04-20T01:54:51.385Z,0.00
2023-04-20T01:55:51.377Z,0.00
2023-04-20T01:56:51.358Z,0.00
2023-04-20T01:57:51.326Z,0.00
2023-04-20T01:58:51.312Z,0.00
2023-04-20T01:59:51.314Z,0.00
2023-04-20T02:00:51.290Z,0.00
2023-04-20T02:01:51.363Z,0.00
2023-04-20T02:02:51.502Z,0.00
2023-04-20T02:03:51.446Z,0.00
2023-04-20T02:04:51.253Z,0.00
2023-04-20T02:05:51.215Z,0.00
2023-04-20T02:06:51.212Z,0.00
2023-04-20T02:07:51.231Z,0.00
2023-04-20T02:08:51.170Z,0.00
2023-04-20T02:09:51.195Z,0.00
2023-04-20T02:10:51.138Z,0.00
2023-04-20T02:11:51.130Z,0.00
2023-04-20T02:12:51.116Z,0.00
2023-04-20T02:13:51.137Z,0.00
2023-04-20T02:14:51.098Z,0.00
2023-04-20T02:15:51.100Z,0.00
2023-04-20T02:16:51.085Z,0.00
2023-04-20T02:17:51.113Z,0.00
2023-04-20T02:18:51.034Z,0.00
2023-04-20T02:19:51.054Z,0.00
2023-04-20T02:20:51.028Z,0.00
2023-04-20T02:21:51.027Z,0.00
2023-04-20T02:22:50.959Z,0.00
2023-04-20T02:23:50.969Z,0.00
2023-04-20T02:24:50.958Z,0.00
2023-04-20T02:25:50.948Z,0.00
2023-04-20T02:26:50.962Z,0.00
2023-04-20T02:27:50.938Z,0.00
2023-04-20T02:28:50.872Z,0.00
2023-04-20T02:29:50.888Z,0.00
2023-04-20T02:30:50.949Z,0.00
2023-04-20T02:31:50.880Z,0.00
2023-04-20T02:32:50.861Z,0.00
2023-04-20T02:33:50.872Z,0.00
2023-04-20T02:34:50.794Z,0.00
2023-04-20T02:35:50.815Z,0.00
2023-04-20T02:36:50.813Z,0.00
2023-04-20T02:37:50.775Z,0.00
2023-04-20T02:38:50.793Z,0.00
2023-04-20T02:39:50.789Z,0.00
2023-04-20T02:40:50.735Z,0.00
2023-04-20T02:41:50.752Z,0.00
2023-04-20T02:42:50.677Z,0.00
2023-04-20T02:43:50.699Z,0.00
2023-04-20T02:44:50.718Z,0.00
2023-04-20T02:45:50.667Z,0.00
2023-04-20T02:46:50.679Z,0.00
2023-04-20T02:47:50.693Z,0.00
2023-04-20T02:48:50.609Z,0.00
2023-04-20T02:49:50.647Z,0.00
2023-04-20T02:50:50.690Z,0.00
2023-04-20T02:51:50.594Z,0.00
2023-04-20T02:52:50.598Z,0.00
2023-04-20T02:53:50.564Z,0.00
2023-04-20T02:54:50.550Z,0.00
2023-04-20T02:55:50.575Z,0.00
2023-04-20T02:56:50.625Z,0.00
2023-04-20T02:57:50.537Z,0.00
2023-04-20T02:58:50.477Z,0.00
2023-04-20T02:59:50.489Z,0.00
2023-04-20T03:00:50.480Z,0.00
2023-04-20T03:01:50.510Z,0.00
2023-04-20T03:02:50.621Z,0.00
2023-04-20T03:03:50.675Z,0.00
2023-04-20T03:04:50.493Z,0.00
2023-04-20T03:05:50.405Z,0.00
2023-04-20T03:06:50.399Z,0.00
2023-04-20T03:07:50.411Z,0.00
2023-04-20T03:08:50.356Z,0.00
2023-04-20T03:09:50.431Z,0.00
2023-04-20T03:10:50.317Z,0.00
2023-04-20T03:11:50.330Z,0.00
2023-04-20T03:12:50.336Z,0.00
2023-04-20T03:13:50.343Z,0.00
2023-04-20T03:14:50.316Z,0.00
2023-04-20T03:15:50.327Z,0.00
2023-04-20T03:16:50.337Z,0.00
2023-04-20T03:17:50.298Z,0.00
2023-04-20T03:18:50.234Z,0.00
2023-04-20T03:19:50.269Z,0.00
2023-04-20T03:20:50.222Z,0.00
2023-04-20T03:21:50.209Z,0.00
2023-04-20T03:22:50.168Z,0.00
2023-04-20T03:23:50.157Z,0.00
2023-04-20T03:24:52.919Z,0.00
2023-04-20T03:25:50.164Z,0.00
2023-04-20T03:26:50.231Z,0.00
2023-04-20T03:27:50.145Z,0.00
2023-04-20T03:28:50.100Z,0.00
2023-04-20T03:29:50.100Z,0.00
2023-04-20T03:30:50.042Z,0.00
2023-04-20T03:31:50.099Z,0.00
2023-04-20T03:32:50.228Z,0.00
2023-04-20T03:33:50.053Z,0.00
2023-04-20T03:34:49.989Z,0.00
2023-04-20T03:35:50.007Z,0.00
2023-04-20T03:36:49.974Z,0.00
2023-04-20T03:37:49.969Z,0.00
2023-04-20T03:38:50.026Z,0.00
2023-04-20T03:39:49.980Z,0.00
2023-04-20T03:40:49.908Z,0.00
2023-04-20T03:41:49.963Z,0.00
2023-04-20T03:42:49.870Z,0.00
2023-04-20T03:43:49.897Z,0.00
2023-04-20T03:44:49.907Z,0.00
2023-04-20T03:45:49.924Z,0.00
2023-04-20T03:46:49.851Z,0.00
2023-04-20T03:47:50.002Z,0.00
2023-04-20T03:48:49.802Z,1.00
2023-04-20T03:49:49.837Z,1.00
2023-04-20T03:50:49.899Z,1.00
2023-04-20T03:51:49.800Z,1.00
2023-04-20T03:52:49.769Z,0.00
2023-04-20T03:53:49.763Z,0.00
2023-04-20T03:54:49.770Z,0.00
2023-04-20T03:55:49.755Z,2.00
2023-04-20T03:56:49.929Z,2.00
2023-04-20T03:57:49.759Z,2.00
2023-04-20T03:58:49.667Z,0.00
2023-04-20T03:59:49.685Z,0.00
2023-04-20T04:01:25.412Z,4.00
2023-04-20T04:01:49.753Z,0.00
2023-04-20T04:02:49.759Z,6.00
2023-04-20T04:03:50.500Z,5.00
2023-04-20T04:05:04.665Z,3.00
2023-04-20T04:05:49.604Z,7.00
2023-04-20T04:06:49.577Z,15.00
2023-04-20T04:07:49.594Z,9.00
2023-04-20T04:08:49.668Z,9.00
2023-04-20T04:09:49.547Z,7.00
2023-04-20T04:10:49.550Z,11.00
2023-04-20T04:11:49.508Z,16.00
2023-04-20T04:12:49.500Z,18.00
2023-04-20T04:13:49.490Z,14.00
2023-04-20T04:14:49.514Z,31.00
2023-04-20T04:15:49.484Z,29.00
2023-04-20T04:16:49.498Z,25.00
2023-04-20T04:17:49.482Z,36.00
2023-04-20T04:18:49.432Z,37.00
2023-04-20T04:19:49.407Z,43.00
2023-04-20T04:20:49.426Z,43.00
2023-04-20T04:22:17.356Z,41.00
2023-04-20T04:22:49.392Z,45.00
2023-04-20T04:23:49.349Z,48.00
2023-04-20T04:24:49.356Z,48.00
2023-04-20T04:25:49.350Z,42.00
2023-04-20T04:27:10.476Z,46.00
2023-04-20T04:29:08.589Z,0.00
2023-04-20T04:30:00.755Z,62.00
2023-04-20T04:33:27.619Z,0.00
2023-04-20T04:34:27.813Z,81.00
2023-04-20T04:35:55.468Z,90.00
2023-04-20T04:36:27.624Z,94.00
2023-04-20T04:37:30.592Z,106.00
2023-04-20T04:38:25.250Z,102.00
2023-04-20T04:39:24.050Z,121.00
2023-04-20T04:40:24.677Z,135.00
2023-04-20T04:41:23.653Z,142.00
2023-04-20T04:42:28.838Z,158.00
2023-04-20T04:43:30.023Z,154.00
2023-04-20T04:45:34.152Z,0.00
2023-04-20T04:46:34.192Z,184.00
2023-04-20T04:47:34.196Z,195.00
2023-04-20T04:48:34.114Z,195.00
2023-04-20T04:49:34.132Z,189.00
2023-04-20T04:50:34.093Z,203.00
2023-04-20T04:51:34.081Z,240.00
2023-04-20T04:52:34.072Z,268.00
2023-04-20T04:53:34.056Z,307.00
2023-04-20T04:54:34.082Z,338.00
2023-04-20T04:55:34.051Z,328.00
2023-04-20T04:56:33.986Z,336.00
2023-04-20T04:57:33.998Z,308.00
2023-04-20T04:58:34.006Z,310.00
2023-04-20T04:59:34.017Z,334.00
2023-04-20T05:00:34.034Z,358.00
2023-04-20T05:01:33.985Z,370.00
2023-04-20T05:02:34.155Z,383.00
2023-04-20T05:03:34.033Z,423.00
2023-04-20T05:04:34.169Z,474.00
2023-04-20T05:05:33.898Z,553.00
2023-04-20T05:06:33.918Z,558.00
2023-04-20T05:07:33.889Z,600.00
2023-04-20T05:08:33.823Z,621.00
2023-04-20T05:09:33.860Z,632.00
2023-04-20T05:10:33.805Z,638.00
2023-04-20T05:11:33.811Z,730.00
2023-04-20T05:12:33.825Z,748.00
2023-04-20T05:13:33.791Z,785.00
2023-04-20T05:14:35.240Z,921.00
2023-04-20T05:15:33.821Z,875.00
2023-04-20T05:16:33.741Z,814.00
2023-04-20T05:17:33.774Z,703.00
2023-04-20T05:18:33.728Z,728.00
2023-04-20T05:19:34.437Z,690.00
2023-04-20T05:20:33.691Z,764.00
2023-04-20T05:21:33.687Z,788.00
2023-04-20T05:22:33.655Z,759.00
2023-04-20T05:23:33.675Z,819.00
2023-04-20T05:24:33.657Z,847.00
2023-04-20T05:25:33.654Z,936.00
2023-04-20T05:26:33.584Z,898.00
2023-04-20T05:27:33.598Z,897.00
2023-04-20T05:28:33.584Z,929.00
2023-04-20T05:29:33.604Z,999.00
2023-04-20T05:30:33.566Z,1022.00
2023-04-20T05:31:33.573Z,1052.00
2023-04-20T05:32:33.557Z,1229.00
2023-04-20T05:33:33.509Z,1326.00
2023-04-20T05:34:33.498Z,1571.00
2023-04-20T05:35:33.511Z,1544.00
2023-04-20T05:36:33.491Z,1495.00
2023-04-20T05:37:33.483Z,1429.00
2023-04-20T05:38:33.423Z,1398.00
2023-04-20T05:39:33.439Z,1305.00
2023-04-20T05:40:33.422Z,1568.00
2023-04-20T05:41:33.410Z,1630.00
2023-04-20T05:42:33.517Z,1378.00
2023-04-20T05:43:33.407Z,1053.00
2023-04-20T05:44:33.349Z,1024.00
2023-04-20T05:45:33.394Z,1026.00
2023-04-20T05:46:33.339Z,987.00
2023-04-20T05:47:33.447Z,1023.00
2023-04-20T05:48:33.324Z,1060.00
2023-04-20T05:49:33.348Z,1055.00
2023-04-20T05:50:33.276Z,1012.00
2023-04-20T05:51:33.275Z,1048.00
2023-04-20T05:52:33.251Z,1115.00
2023-04-20T05:53:33.250Z,1212.00
2023-04-20T05:54:33.281Z,1287.00
2023-04-20T05:55:33.254Z,1733.00
2023-04-20T05:56:33.199Z,2080.00
2023-04-20T05:57:33.228Z,2260.00
2023-04-20T05:58:33.165Z,2337.00
2023-04-20T05:59:33.170Z,2053.00
2023-04-20T06:00:33.238Z,2091.00
2023-04-20T06:01:33.298Z,2434.00
2023-04-20T06:02:33.182Z,2393.00
2023-04-20T06:03:33.259Z,2104.00
2023-04-20T06:04:33.410Z,2098.00
2023-04-20T06:05:33.288Z,1621.00
2023-04-20T06:06:33.200Z,1470.00
2023-04-20T06:07:33.082Z,1537.00
2023-04-20T06:08:33.025Z,1600.00
2023-04-20T06:09:33.065Z,1445.00
2023-04-20T06:10:32.994Z,1226.00
2023-04-20T06:11:33.007Z,1278.00
2023-04-20T06:12:33.021Z,1361.00
2023-04-20T06:13:32.986Z,1670.00
2023-04-20T06:14:32.982Z,1821.00
2023-04-20T06:15:33.045Z,2019.00
2023-04-20T06:16:33.008Z,2332.00
2023-04-20T06:17:32.976Z,2474.00
2023-04-20T06:18:32.917Z,2471.00
2023-04-20T06:19:32.907Z,2603.00
2023-04-20T06:20:32.907Z,2564.00
2023-04-20T06:21:32.878Z,2941.00
2023-04-20T06:22:32.860Z,2881.00
2023-04-20T06:23:32.887Z,2633.00
2023-04-20T06:24:32.860Z,2130.00
2023-04-20T06:25:32.849Z,1726.00
2023-04-20T06:26:32.785Z,2182.00
2023-04-20T06:27:32.794Z,2130.00
2023-04-20T06:28:32.784Z,1870.00
2023-04-20T06:29:32.778Z,1857.00
2023-04-20T06:30:32.797Z,1690.00
2023-04-20T06:31:32.820Z,1838.00
2023-04-20T06:32:32.752Z,1913.00
2023-04-20T06:33:32.747Z,1920.00
2023-04-20T06:34:32.723Z,1898.00
2023-04-20T06:35:32.720Z,2198.00
2023-04-20T06:36:32.695Z,1975.00
2023-04-20T06:37:32.707Z,1653.00
2023-04-20T06:38:32.625Z,1446.00
2023-04-20T06:39:32.643Z,1573.00
2023-04-20T06:40:32.644Z,1867.00
2023-04-20T06:41:32.604Z,2172.00
2023-04-20T06:42:32.720Z,1919.00
2023-04-20T06:43:32.613Z,1897.00
2023-04-20T06:44:32.538Z,2334.00
2023-04-20T06:45:34.081Z,2686.00
2023-04-20T06:46:32.546Z,2556.00
2023-04-20T06:47:32.545Z,2197.00
2023-04-20T06:48:33.165Z,1976.00
2023-04-20T06:49:32.522Z,1983.00
2023-04-20T06:50:32.524Z,2166.00
2023-04-20T06:51:32.469Z,2260.00
2023-04-20T06:52:32.453Z,3250.00
2023-04-20T06:53:32.441Z,3280.00
2023-04-20T06:54:32.470Z,3735.00
2023-04-20T06:55:32.455Z,3443.00
2023-04-20T06:56:34.320Z,3473.00
2023-04-20T06:57:32.417Z,3701.00
2023-04-20T06:58:33.149Z,3667.00
2023-04-20T06:59:32.381Z,3600.00
2023-04-20T07:00:32.389Z,3885.00
2023-04-20T07:01:32.452Z,4462.00
2023-04-20T07:02:32.371Z,4730.00
2023-04-20T07:03:32.455Z,4548.00
2023-04-20T07:04:32.310Z,3809.00
2023-04-20T07:05:32.287Z,3558.00
2023-04-20T07:06:32.301Z,4132.00
2023-04-20T07:07:32.290Z,3810.00
2023-04-20T07:08:32.233Z,3575.00
2023-04-20T07:09:32.264Z,3718.00
2023-04-20T07:10:32.199Z,3274.00
2023-04-20T07:11:32.220Z,3514.00
2023-04-20T07:12:32.228Z,3247.00
2023-04-20T07:13:33.888Z,2991.00
2023-04-20T07:14:32.175Z,2696.00
2023-04-20T07:15:32.192Z,3100.00
2023-04-20T07:16:32.226Z,3254.00
2023-04-20T07:17:32.209Z,3192.00
2023-04-20T07:18:34.694Z,3797.00
2023-04-20T07:19:32.101Z,4171.00
2023-04-20T07:20:32.089Z,4420.00
2023-04-20T07:21:32.096Z,4470.00
2023-04-20T07:22:32.070Z,4275.00
2023-04-20T07:23:32.023Z,3547.00
2023-04-20T07:24:32.105Z,3268.00
2023-04-20T07:25:32.026Z,2542.00
2023-04-20T07:26:32.048Z,2677.00
2023-04-20T07:27:32.001Z,3021.00
2023-04-20T07:28:32.004Z,3443.00
2023-04-20T07:29:33.958Z,3706.00
2023-04-20T07:30:32.016Z,4119.00
2023-04-20T07:31:34.194Z,3615.00
2023-04-20T07:32:31.975Z,3824.00
2023-04-20T07:33:31.898Z,4166.00
2023-04-20T07:34:31.943Z,3758.00
2023-04-20T07:35:31.891Z,3324.00
2023-04-20T07:36:31.914Z,3103.00
2023-04-20T07:37:31.845Z,3527.00
2023-04-20T07:38:31.891Z,3813.00
2023-04-20T07:39:31.846Z,4869.00
2023-04-20T07:40:31.834Z,5222.00
2023-04-20T07:41:31.818Z,5063.00
2023-04-20T07:42:31.837Z,4742.00
2023-04-20T07:43:31.766Z,3872.00
2023-04-20T07:44:31.828Z,3103.00
2023-04-20T07:45:31.774Z,2718.00
2023-04-20T07:46:31.784Z,2745.00
2023-04-20T07:47:31.782Z,2747.00
2023-04-20T07:48:31.755Z,2721.00
2023-04-20T07:49:31.717Z,3053.00
2023-04-20T07:50:31.700Z,3172.00
2023-04-20T07:51:31.660Z,3006.00
2023-04-20T07:52:31.724Z,2999.00
2023-04-20T07:53:31.658Z,2302.00
2023-04-20T07:54:31.680Z,2424.00
2023-04-20T07:55:31.625Z,2634.00
2023-04-20T07:56:31.658Z,3913.00
2023-04-20T07:57:31.602Z,4497.00
2023-04-20T07:58:31.618Z,5477.00
2023-04-20T07:59:31.579Z,6518.00
2023-04-20T08:00:31.680Z,6979.00
2023-04-20T08:01:31.560Z,8860.00
2023-04-20T08:02:31.697Z,9093.00
2023-04-20T08:03:31.998Z,9282.00
2023-04-20T08:04:31.757Z,8985.00
2023-04-20T08:05:31.645Z,8547.00
2023-04-20T08:06:31.671Z,9756.00
2023-04-20T08:07:31.483Z,9405.00
2023-04-20T08:08:31.507Z,8416.00
2023-04-20T08:09:31.428Z,8210.00
2023-04-20T08:10:31.469Z,8177.00
2023-04-20T08:11:31.420Z,7980.00
2023-04-20T08:12:31.526Z,7840.00
2023-04-20T08:13:31.397Z,6871.00
2023-04-20T08:14:31.381Z,7535.00
2023-04-20T08:15:31.667Z,6742.00
2023-04-20T08:16:31.472Z,5636.00
2023-04-20T08:17:31.369Z,5560.00
2023-04-20T08:18:31.381Z,6224.00
2023-04-20T08:19:31.332Z,7166.00
2023-04-20T08:20:31.335Z,6395.00
2023-04-20T08:21:31.299Z,5518.00
2023-04-20T08:22:31.271Z,4665.00
2023-04-20T08:23:31.238Z,3736.00
2023-04-20T08:24:31.314Z,2819.00
2023-04-20T08:25:31.218Z,3162.00
2023-04-20T08:26:31.241Z,6228.00
2023-04-20T08:27:31.210Z,8067.00
2023-04-20T08:28:34.082Z,8503.00
2023-04-20T08:29:31.180Z,7822.00
2023-04-20T08:30:31.198Z,6803.00
2023-04-20T08:31:31.143Z,6823.00
2023-04-20T08:32:31.181Z,5952.00
2023-04-20T08:33:31.110Z,5489.00
2023-04-20T08:34:31.131Z,6287.00
2023-04-20T08:35:31.099Z,5631.00
2023-04-20T08:36:31.117Z,4644.00
2023-04-20T08:37:33.036Z,4557.00
2023-04-20T08:38:34.149Z,4937.00
2023-04-20T08:39:31.020Z,5205.00
2023-04-20T08:40:31.065Z,4656.00
2023-04-20T08:41:31.010Z,4947.00
2023-04-20T08:42:31.050Z,5307.00
2023-04-20T08:43:30.957Z,4537.00
2023-04-20T08:44:31.011Z,6610.00
2023-04-20T08:45:30.950Z,8121.00
2023-04-20T08:46:31.009Z,11684.00
2023-04-20T08:47:30.968Z,13234.00
2023-04-20T08:48:32.450Z,12959.00
2023-04-20T08:49:30.903Z,11398.00
2023-04-20T08:50:30.894Z,9328.00
2023-04-20T08:51:30.854Z,7747.00
2023-04-20T08:52:30.913Z,6305.00
2023-04-20T08:53:30.832Z,6375.00
2023-04-20T08:54:30.908Z,8038.00
2023-04-20T08:55:30.831Z,8228.00
2023-04-20T08:56:30.805Z,7283.00
2023-04-20T08:57:30.773Z,5901.00
2023-04-20T08:58:30.817Z,5065.00
2023-04-20T08:59:30.775Z,4621.00
2023-04-20T09:00:30.807Z,4915.00
2023-04-20T09:01:35.691Z,6028.00
2023-04-20T09:02:31.844Z,8087.00
2023-04-20T09:03:30.859Z,7687.00
2023-04-20T09:04:35.762Z,6482.00
2023-04-20T09:05:30.694Z,5434.00
2023-04-20T09:06:30.736Z,5689.00
2023-04-20T09:07:30.680Z,5723.00
2023-04-20T09:08:30.651Z,6248.00
2023-04-20T09:09:30.635Z,6899.00
2023-04-20T09:10:30.624Z,7400.00
2023-04-20T09:11:30.586Z,8472.00
2023-04-20T09:12:30.666Z,9257.00
2023-04-20T09:13:30.617Z,10076.00
2023-04-20T09:14:30.581Z,10000.00
2023-04-20T09:15:30.566Z,10131.00
2023-04-20T09:16:30.638Z,10616.00
2023-04-20T09:17:30.576Z,10995.00
2023-04-20T09:18:30.564Z,11177.00
2023-04-20T09:19:30.503Z,11216.00
2023-04-20T09:20:30.490Z,11482.00
2023-04-20T09:21:30.479Z,12102.00
2023-04-20T09:22:30.494Z,12177.00
2023-04-20T09:23:30.420Z,12480.00
2023-04-20T09:24:30.498Z,12643.00
2023-04-20T09:25:30.416Z,12874.00
2023-04-20T09:26:30.430Z,12825.00
2023-04-20T09:27:30.399Z,14054.00
2023-04-20T09:28:30.393Z,13446.00
2023-04-20T09:29:30.441Z,13700.00
2023-04-20T09:30:30.393Z,13904.00
2023-04-20T09:31:30.371Z,14647.00
2023-04-20T09:32:30.423Z,15783.00
2023-04-20T09:33:30.282Z,15686.00
2023-04-20T09:34:30.338Z,14660.00
2023-04-20T09:35:30.283Z,14619.00
2023-04-20T09:36:30.316Z,14412.00
2023-04-20T09:37:30.282Z,13415.00
2023-04-20T09:38:30.253Z,13111.00
2023-04-20T09:39:30.224Z,12508.00
2023-04-20T09:40:30.263Z,14015.00
2023-04-20T09:41:30.182Z,11974.00
2023-04-20T09:42:30.272Z,12009.00
2023-04-20T09:43:30.214Z,11798.00
2023-04-20T09:44:30.162Z,11515.00
2023-04-20T09:45:30.185Z,11845.00
2023-04-20T09:46:30.192Z,12589.00
2023-04-20T09:47:30.188Z,14016.00
2023-04-20T09:48:32.123Z,12712.00
2023-04-20T09:49:30.109Z,11925.00
2023-04-20T09:50:41.905Z,11167.00
2023-04-20T09:51:31.050Z,10789.00
2023-04-20T09:52:30.113Z,11578.00
2023-04-20T09:53:30.028Z,12319.00
2023-04-20T09:54:30.100Z,13014.00
2023-04-20T09:55:30.017Z,12708.00
2023-04-20T09:56:30.011Z,12254.00
2023-04-20T09:57:29.994Z,12561.00
2023-04-20T09:58:29.978Z,12837.00
2023-04-20T09:59:29.941Z,11900.00
2023-04-20T10:00:30.029Z,11721.00
2023-04-20T10:01:29.955Z,12296.00
2023-04-20T10:02:30.042Z,12746.00
2023-04-20T10:03:30.103Z,15440.00
2023-04-20T10:04:30.030Z,14126.00
2023-04-20T10:05:29.865Z,14664.00
2023-04-20T10:06:29.936Z,14181.00
2023-04-20T10:07:29.866Z,13532.00
2023-04-20T10:08:29.858Z,13063.00
2023-04-20T10:09:29.828Z,12673.00
2023-04-20T10:10:29.841Z,13332.00
2023-04-20T10:11:40.489Z,13262.00
2023-04-20T10:12:30.872Z,13151.00
2023-04-20T10:13:29.757Z,11647.00
2023-04-20T10:14:29.811Z,10494.00
2023-04-20T10:15:29.755Z,9829.00
2023-04-20T10:16:29.753Z,9571.00
2023-04-20T10:17:29.852Z,9847.00
2023-04-20T10:18:29.871Z,9914.00
2023-04-20T10:19:29.705Z,10785.00
2023-04-20T10:20:29.688Z,11504.00
2023-04-20T10:21:29.711Z,11791.00
2023-04-20T10:22:29.661Z,12499.00
2023-04-20T10:23:29.660Z,13541.00
2023-04-20T10:24:29.703Z,13578.00
2023-04-20T10:25:29.592Z,13831.00
2023-04-20T10:26:29.644Z,14346.00
2023-04-20T10:27:29.597Z,14423.00
2023-04-20T10:28:29.577Z,14456.00
2023-04-20T10:29:29.555Z,14198.00
2023-04-20T10:30:29.634Z,13565.00
2023-04-20T10:31:29.568Z,12587.00
2023-04-20T10:32:29.665Z,12423.00
2023-04-20T10:33:29.489Z,11729.00
2023-04-20T10:34:29.523Z,11335.00
2023-04-20T10:35:29.479Z,11756.00
2023-04-20T10:36:29.603Z,11898.00
2023-04-20T10:37:29.461Z,12040.00
2023-04-20T10:38:29.457Z,12675.00
2023-04-20T10:39:29.403Z,12810.00
2023-04-20T10:40:29.453Z,12369.00
2023-04-20T10:41:29.385Z,11779.00
2023-04-20T10:42:29.798Z,11296.00
2023-04-20T10:43:29.377Z,11632.00
2023-04-20T10:44:29.376Z,10721.00
2023-04-20T10:45:29.354Z,9747.00
2023-04-20T10:46:29.401Z,9406.00
2023-04-20T10:47:29.345Z,8818.00
2023-04-20T10:48:29.468Z,8245.00
2023-04-20T10:49:29.305Z,7733.00
2023-04-20T10:50:29.285Z,7862.00
2023-04-20T10:51:29.241Z,8068.00
2023-04-20T10:52:29.286Z,8569.00
2023-04-20T10:53:29.219Z,9301.00
2023-04-20T10:54:29.432Z,10068.00
2023-04-20T10:55:29.220Z,9573.00
2023-04-20T10:56:29.201Z,9697.00
2023-04-20T10:57:29.179Z,10739.00
2023-04-20T10:58:29.209Z,11909.00
2023-04-20T10:59:29.132Z,11594.00
2023-04-20T11:00:29.210Z,10125.00
2023-04-20T11:01:29.125Z,8401.00
2023-04-20T11:02:29.299Z,7838.00
2023-04-20T11:03:29.350Z,8691.00
2023-04-20T11:04:29.139Z,9563.00
2023-04-20T11:05:29.049Z,9594.00
2023-04-20T11:06:29.141Z,9513.00
2023-04-20T11:07:29.051Z,9843.00
2023-04-20T11:08:29.037Z,10298.00
2023-04-20T11:09:29.022Z,10002.00
2023-04-20T11:10:29.012Z,9422.00
2023-04-20T11:11:28.966Z,8864.00
2023-04-20T11:12:29.132Z,9452.00
2023-04-20T11:13:28.940Z,10680.00
2023-04-20T11:14:29.004Z,11086.00
2023-04-20T11:15:28.941Z,11779.00
2023-04-20T11:16:44.344Z,11812.00
2023-04-20T11:17:30.116Z,11202.00
2023-04-20T11:18:28.872Z,11843.00
2023-04-20T11:19:28.922Z,12642.00
2023-04-20T11:20:28.875Z,13004.00
2023-04-20T11:21:28.871Z,12560.00
2023-04-20T11:22:28.846Z,13407.00
2023-04-20T11:23:28.859Z,14034.00
2023-04-20T11:24:28.791Z,15627.00
2023-04-20T11:25:28.830Z,17347.00
2023-04-20T11:26:28.766Z,16679.00
2023-04-20T11:27:28.817Z,18726.00
2023-04-20T11:28:28.777Z,19517.00
2023-04-20T11:29:28.801Z,19836.00
2023-04-20T11:30:28.710Z,17734.00
2023-04-20T11:31:28.826Z,18112.00
2023-04-20T11:32:28.907Z,18148.00
2023-04-20T11:33:28.731Z,17036.00
2023-04-20T11:34:28.691Z,16178.00
2023-04-20T11:35:28.705Z,17218.00
2023-04-20T11:36:28.646Z,17850.00
2023-04-20T11:37:28.686Z,21028.00
2023-04-20T11:38:28.645Z,16070.00
2023-04-20T11:39:28.643Z,14553.00
2023-04-20T11:40:28.597Z,13458.00
2023-04-20T11:41:28.623Z,12482.00
2023-04-20T11:42:28.575Z,12223.00
2023-04-20T11:43:28.568Z,12522.00
2023-04-20T11:44:28.527Z,14280.00
2023-04-20T11:45:28.585Z,17459.00
2023-04-20T11:46:28.654Z,15545.00
2023-04-20T11:47:28.595Z,15679.00
2023-04-20T11:48:28.530Z,14853.00
2023-04-20T11:49:28.514Z,14814.00
2023-04-20T11:50:28.454Z,15796.00
2023-04-20T11:51:28.494Z,16916.00
2023-04-20T11:52:28.466Z,17492.00
2023-04-20T11:53:28.474Z,17561.00
2023-04-20T11:54:28.431Z,19245.00
2023-04-20T11:55:28.429Z,17940.00
2023-04-20T11:56:28.698Z,15685.00
2023-04-20T11:57:28.410Z,14133.00
2023-04-20T11:58:28.337Z,12835.00
2023-04-20T11:59:28.422Z,12639.00
2023-04-20T12:00:28.335Z,14201.00
2023-04-20T12:01:28.323Z,23204.00
2023-04-20T12:02:28.460Z,20004.00
2023-04-20T12:03:28.454Z,21193.00
2023-04-20T12:04:28.577Z,21762.00
2023-04-20T12:05:28.386Z,16025.00
2023-04-20T12:06:28.290Z,13445.00
2023-04-20T12:07:28.272Z,11764.00
2023-04-20T12:08:28.244Z,13437.00
2023-04-20T12:09:28.220Z,13967.00
2023-04-20T12:10:28.216Z,13039.00
2023-04-20T12:11:28.303Z,12517.00
2023-04-20T12:12:28.168Z,12819.00
2023-04-20T12:13:28.197Z,14116.00
2023-04-20T12:14:28.125Z,13588.00
2023-04-20T12:15:28.192Z,55897.00
2023-04-20T12:16:28.226Z,20624.00
2023-04-20T12:17:28.257Z,21360.00
2023-04-20T12:18:28.077Z,48040.00
2023-04-20T12:19:28.105Z,19161.00
2023-04-20T12:20:28.071Z,20336.00
2023-04-20T12:21:28.058Z,23114.00
2023-04-20T12:22:28.050Z,45484.00
2023-04-20T12:26:04.759Z,64269.00
2023-04-20T12:26:09.441Z,64012.00
2023-04-20T12:27:09.487Z,59857.00
2023-04-20T12:28:09.408Z,60657.00
2023-04-20T12:29:09.453Z,63506.00
2023-04-20T12:30:09.408Z,61051.00
2023-04-20T12:31:09.476Z,60750.00
2023-04-20T12:32:09.390Z,40551.00
2023-04-20T12:33:09.429Z,44047.00